Metar z pełnej godziny Komunikat METAR ze strony awiacja.imgw.pl Metar G00 EPWA METAR EPWA 200200Z 00000KT 9999 MIFG NSC 17/16 Q1016 NOSIG=